Wednesday, November 22, 2017, 1:01 PM GMT
Back to Local

CYFC, Fredericton, N. B.

Location: , , Canada Lat: 45.867
Local Time: 1:01 PM GMT (13:01 GMT) Lon: -66.533
Time Zone: GMT Elev: 55 ft

Show me the last for .
Show Decoded

2017-11-22 12:32 METAR CYFC 221232Z AUTO 00000KT 1/4SM R09/P6000FT/U FZFG VV002 M03/M03 A3000 RMK
                 SLP162 =
2017-11-22 12:00 METAR CYFC 221200Z AUTO 00000KT 1/2SM R09/4500FT/N FZFG VV004 M04/M04 A3000 RMK
                 ICG PAST HR SLP161 =
2017-11-22 11:52 METAR CYFC 221152Z AUTO 31003KT 1/8SM R09/4500FT/N FZFG VV003 M04/M04 A3000 RMK
                 ICG PAST HR SLP161 =
2017-11-22 11:47 METAR CYFC 221147Z AUTO 32003KT 1/8SM R09/4000FT/N FZFG VV003 M04/M04 A3000 RMK
                 ICG INTMT SLP161 =
2017-11-22 11:23 METAR CYFC 221123Z AUTO 36004KT 1/8SM R09/4000FT/N FZFG VV002 M04/M04 A3000 RMK
                 ICG SLP162 =
2017-11-22 11:00 METAR CYFC 221100Z AUTO 34004KT 3/8SM R09/P6000FT/D FZFG VV002 M05/M05 A3000 RMK
                 SLP162 =
2017-11-22 10:56 METAR CYFC 221056Z AUTO 34004KT 1/2SM R09/P6000FT/D FZFG VV002 M05/M05 A3000 RMK
                 SLP163 =
2017-11-22 10:55 METAR CYFC 221055Z AUTO 33004KT 1/2SM R09/P6000FT/D FZFG VV003 M05/M05 A3000 RMK
                 SLP163 =
2017-11-22 10:51 METAR CYFC 221051Z AUTO 34002KT 1 1/4SM BR OVC003 M05/M05 A3000 RMK SLP162 =
2017-11-22 10:50 METAR CYFC 221050Z AUTO 00000KT 2 1/4SM BR OVC003 M05/M05 A3000 RMK SLP162 =
2017-11-22 10:44 METAR CYFC 221044Z AUTO 30002KT 4SM BR OVC005 M04/M05 A3000 RMK SLP163 =
2017-11-22 10:42 METAR CYFC 221042Z AUTO 32002KT 7SM OVC005 M04/M05 A3000 RMK SLP162 =
2017-11-22 10:22 METAR CYFC 221022Z AUTO 00000KT 6SM BR SCT003 OVC007 M05/M05 A2999 RMK SLP158 =
2017-11-22 10:16 METAR CYFC 221016Z AUTO 32002KT 5SM BR SCT003 OVC007 M05/M05 A2999 RMK SLP158 =
2017-11-22 10:15 METAR CYFC 221015Z AUTO 32002KT 5SM BR BKN003 OVC007 M04/M05 A2999 RMK SLP158
2017-11-22 10:00 METAR CYFC 221000Z AUTO 33003KT 7SM BKN003 OVC011 M04/M05 A2999 RMK SLP158 =
2017-11-22 09:30 METAR CYFC 220930Z AUTO 36003KT 6SM BR BKN003 M04/M04 A2998 RMK SLP154 =
2017-11-22 09:29 METAR CYFC 220929Z AUTO 36003KT 5SM BR BKN003 M04/M04 A2998 RMK SLP154 =
2017-11-22 09:19 METAR CYFC 220919Z AUTO 36002KT 5SM BR CLR M03/M03 A2998 RMK SLP154 =
2017-11-22 09:07 METAR CYFC 220907Z AUTO 03002KT 6SM BR CLR M04/M04 A2998 RMK SLP153 =
2017-11-22 09:00 METAR CYFC 220900Z AUTO 01002KT 5SM BR CLR M04/M04 A2998 RMK SLP154 =
2017-11-22 08:57 METAR CYFC 220857Z AUTO 36003KT 5SM BR CLR M04/M04 A2998 RMK SLP153 =
2017-11-22 08:27 METAR CYFC 220827Z AUTO 33003KT 6SM BR CLR M04/M04 A2998 RMK SLP153 =
2017-11-22 08:22 METAR CYFC 220822Z AUTO 33002KT 3SM BR CLR M04/M04 A2997 RMK SLP152 =
2017-11-22 08:13 METAR CYFC 220813Z AUTO 35002KT 2 1/2SM BR CLR M04/M04 A2998 RMK SLP153 =
2017-11-22 08:08 METAR CYFC 220808Z AUTO 36002KT 5SM BR CLR M04/M04 A2997 RMK SLP151 =
2017-11-22 08:00 METAR CYFC 220800Z AUTO 33002KT 7SM CLR M04/M04 A2997 RMK SLP150 =
2017-11-22 07:00 METAR CYFC 220700Z AUTO 31004KT 8SM CLR M04/M04 A2999 RMK TS/LTNG TEMPO UNAVBL
                 SLP156 =
2017-11-22 06:40 METAR CYFC 220640Z AUTO VRB02KT 6SM BR CLR M03/M04 A2998 RMK SLP153 =
2017-11-22 06:31 METAR CYFC 220631Z AUTO 35002KT 5SM BR CLR M03/M03 A2997 RMK SLP151 =
2017-11-22 06:00 METAR CYFC 220600Z AUTO 00000KT 9SM CLR M03/M03 A2997 RMK SLP150 =
2017-11-22 05:00 METAR CYFC 220500Z AUTO 31002KT 9SM BKN180 M03/M03 A2997 RMK SLP150 =
2017-11-22 04:00 METAR CYFC 220400Z AUTO 35004KT 9SM OVC190 M02/M03 A2996 RMK SLP150 =
2017-11-22 03:00 METAR CYFC 220300Z AUTO 31002KT 9SM FEW170 BKN200 M02/M02 A2995 RMK SLP146 =
2017-11-22 02:00 METAR CYFC 220200Z AUTO 30002KT 9SM BKN180 M02/M02 A2994 RMK SLP143 =
2017-11-22 01:00 METAR CYFC 220100Z AUTO 34002KT 9SM FEW190 M02/M02 A2996 RMK SLP147 =
2017-11-22 00:00 METAR CYFC 220000Z AUTO 36002KT 9SM FEW220 SCT240 M02/M02 A2996 RMK SLP149 =
2017-11-21 23:00 METAR CYFC 212300Z AUTO 35005KT 340V050 9SM CLR M01/M02 A2996 RMK SLP148 =
2017-11-21 22:00 METAR CYFC 212200Z AUTO 07004KT 9SM CLR 00/M01 A2996 RMK SLP147 =
2017-11-21 21:02 METAR CYFC 212102Z AUTO 09005KT 9SM SCT014 01/M02 A2996 RMK SLP148 =
2017-11-21 21:00 METAR CYFC 212100Z AUTO 10005KT 9SM BKN014 01/M02 A2996 RMK SLP149 =
2017-11-21 20:37 METAR CYFC 212037Z AUTO 11004KT 9SM BKN018 02/M02 A2997 RMK SLP152 =
2017-11-21 20:00 METAR CYFC 212000Z AUTO 14007KT 9SM OVC022 03/M02 A2999 RMK SLP158 =
2017-11-21 19:00 METAR CYFC 211900Z AUTO 18007KT 140V210 9SM BKN024 BKN029 03/M05 A3001 RMK
                 SLP166 =
2017-11-21 18:59 METAR CYFC 211859Z AUTO 18008KT 140V220 9SM BKN024 BKN029 03/M05 A3001 RMK
                 SLP166 =
2017-11-21 18:00 METAR CYFC 211800Z AUTO 16005KT 9SM CLR 02/M08 A3001 RMK SLP164 =
2017-11-21 17:00 METAR CYFC 211700Z AUTO 16007KT 130V190 9SM CLR M01/M11 A3004 RMK SLP175 =
2017-11-21 16:00 METAR CYFC 211600Z AUTO 17004KT 110V210 9SM OVC045 M03/M12 A3006 RMK PRESFR
                 SLP182 =
2017-11-21 15:00 METAR CYFC 211500Z AUTO 16004KT 140V210 9SM SCT039 M04/M13 A3010 RMK SLP196 =
2017-11-21 14:00 METAR CYFC 211400Z AUTO 22004KT 200V270 9SM CLR M06/M12 A3009 RMK SLP194 =

Support USWX by starting your Amazon purchase here.